< < Back
Terminal Aerodrome Forecast


Current Version              Previous Versions:   1  2  3  4  5  6  7  8  9  

Terminal Aerodrome Forecast

186
FTUS42 KJAX 301700
TAFSSI
TAF
KSSI 301736Z 3018/3118 08007KT P6SM FEW025
     FM310000 18004KT P6SM FEW030 FEW250=

Latest METAR

775
SAUS70 KWBC 310200 RRE
MTRSSI
METAR KSSI 310153Z AUTO 12008KT 10SM CLR 28/24 A3012 RMK AO2 SLP199
T02780239


USA.gov is the U.S. government's official web portal to all federal, state and local government web resources and services.